Time;durP1;ratioP1;P1;durP2;ratioP2;P2;SDS_P1;SDS_P2;PMS_P1;PMS_P2;Temp;Humidity;BMP_temperature;BMP_pressure;BME280_temperature;BME280_humidity;BME280_pressure;Samples;Min_cycle;Max_cycle;Signal;HPM_P1;HPM_P2
2022/06/07 00:01:36;;;;;;;5.17;4.87;;;;;;;15.26;100.00;96982.94;4851859;29;20242;-58
2022/06/07 00:04:07;;;;;;;5.33;5.00;;;;;;;15.36;100.00;96970.97;4826334;29;20245;-58
2022/06/07 00:06:35;;;;;;;5.30;4.90;;;;;;;15.47;100.00;96967.59;4817791;29;20338;-55
2022/06/07 00:09:03;;;;;;;6.47;6.00;;;;;;;15.52;100.00;96950.88;4832417;29;20254;-57
2022/06/07 00:11:31;;;;;;;6.73;6.23;;;;;;;15.55;100.00;96951.25;4848098;29;20261;-58
2022/06/07 00:14:00;;;;;;;5.93;5.53;;;;;;;15.37;100.00;96956.59;4845391;29;20309;-58
2022/06/07 00:16:28;;;;;;;6.60;5.97;;;;;;;15.32;100.00;96958.06;4851006;29;20298;-57
2022/06/07 00:18:56;;;;;;;6.27;5.70;;;;;;;15.23;100.00;96951.38;4817611;29;20863;-55
2022/06/07 00:21:29;;;;;;;6.07;5.67;;;;;;;15.30;100.00;96946.78;4813257;29;20320;-57
2022/06/07 00:23:57;;;;;;;6.83;6.20;;;;;;;15.09;100.00;96948.00;4831529;29;21123;-54
2022/06/07 00:26:26;;;;;;;5.83;5.43;;;;;;;15.21;100.00;96941.97;4851791;29;20647;-57
2022/06/07 00:28:54;;;;;;;6.27;5.77;;;;;;;15.28;100.00;96942.72;4848891;29;20245;-57
2022/06/07 00:31:22;;;;;;;6.63;6.17;;;;;;;15.24;100.00;96941.53;4851459;29;20347;-58
2022/06/07 00:33:50;;;;;;;6.33;5.87;;;;;;;15.25;100.00;96943.97;4814354;29;20912;-56
2022/06/07 00:36:19;;;;;;;6.10;5.70;;;;;;;15.17;100.00;96941.56;4851337;29;20237;-58
2022/06/07 00:38:48;;;;;;;5.53;5.13;;;;;;;15.16;100.00;96940.78;4814653;29;20302;-56
2022/06/07 00:41:16;;;;;;;6.27;5.80;;;;;;;15.05;100.00;96941.47;4833364;29;20762;-58
2022/06/07 00:44:17;;;;;;;6.77;6.37;;;;;;;15.09;100.00;96934.66;4843700;29;20240;-57
2022/06/07 00:46:46;;;;;;;5.00;4.70;;;;;;;15.25;100.00;96938.63;4836460;29;20241;-52
2022/06/07 00:49:15;;;;;;;6.60;6.10;;;;;;;15.14;100.00;96931.34;4850698;29;20302;-58
2022/06/07 00:51:45;;;;;;;6.03;5.70;;;;;;;15.09;100.00;96934.66;4783155;29;20282;-53
2022/06/07 00:54:20;;;;;;;6.23;5.63;;;;;;;15.27;100.00;96933.06;4850132;29;20277;-59
2022/06/07 00:56:49;;;;;;;6.03;5.63;;;;;;;15.23;100.00;96931.88;4828735;29;20853;-56
2022/06/07 00:59:17;;;;;;;6.30;5.90;;;;;;;15.31;100.00;96924.38;4853300;29;20492;-57
2022/06/07 01:01:46;;;;;;;6.07;5.67;;;;;;;15.17;100.00;96922.91;4846449;29;20329;-54
2022/06/07 01:04:14;;;;;;;6.77;6.27;;;;;;;15.26;100.00;96924.25;4852669;29;20234;-58
2022/06/07 01:12:18;;;;;;;7.00;6.50;;;;;;;15.11;100.00;96907.78;4835362;29;20274;-56
2022/06/07 01:14:47;;;;;;;6.97;6.43;;;;;;;15.15;100.00;96906.28;4844919;29;20312;-54
2022/06/07 01:17:15;;;;;;;7.40;6.70;;;;;;;15.11;100.00;96911.25;4849526;29;20303;-58
2022/06/07 01:19:43;;;;;;;7.00;6.33;;;;;;;15.10;100.00;96917.63;4846993;29;20213;-56
2022/06/07 01:22:13;;;;;;;7.07;6.47;;;;;;;14.94;100.00;96923.50;4816726;29;20651;-56
2022/06/07 01:24:42;;;;;;;6.53;6.13;;;;;;;14.99;100.00;96923.66;4810811;29;20482;-54
2022/06/07 01:27:10;;;;;;;6.87;6.43;;;;;;;14.97;100.00;96936.41;4833217;29;20718;-55
2022/06/07 01:29:39;;;;;;;6.70;6.30;;;;;;;15.23;100.00;96951.38;4848441;29;20210;-54
2022/06/07 01:32:08;;;;;;;8.30;7.57;;;;;;;15.22;100.00;96949.75;4847827;29;20241;-57
2022/06/07 01:34:39;;;;;;;7.47;6.87;;;;;;;14.94;100.00;96953.66;4847368;29;20222;-54
2022/06/07 01:37:07;;;;;;;8.43;7.73;;;;;;;15.02;100.00;96961.41;4849639;29;20658;-56
2022/06/07 01:42:22;;;;;;;8.87;8.10;;;;;;;15.22;100.00;96971.09;4848385;29;20245;-58
2022/06/07 01:44:51;;;;;;;8.60;7.90;;;;;;;14.94;100.00;96972.34;4832430;29;20297;-56
2022/06/07 01:47:21;;;;;;;10.80;9.00;;;;;;;14.84;100.00;96975.50;4849927;29;20655;-56
2022/06/07 01:49:50;;;;;;;8.47;7.80;;;;;;;14.88;100.00;96981.22;4851257;29;20830;-52
2022/06/07 01:52:20;;;;;;;9.03;8.30;;;;;;;14.73;100.00;96984.19;4852077;29;20270;-57
2022/06/07 01:54:51;;;;;;;8.97;8.37;;;;;;;14.63;100.00;96979.31;4775626;29;21579;-55
2022/06/07 01:57:20;;;;;;;9.00;8.20;;;;;;;14.94;100.00;96980.34;4854231;29;20206;-57
2022/06/07 01:59:48;;;;;;;9.50;8.60;;;;;;;14.85;100.00;96979.81;4835041;29;20988;-56
2022/06/07 02:02:17;;;;;;;8.63;7.83;;;;;;;14.88;100.00;96986.53;4853197;29;20301;-56
2022/06/07 02:04:45;;;;;;;7.83;7.33;;;;;;;15.02;100.00;96982.75;4851318;29;20214;-55
2022/06/07 02:07:14;;;;;;;7.10;6.60;;;;;;;14.82;100.00;96982.91;4851877;29;20214;-54
2022/06/07 02:09:43;;;;;;;8.07;7.57;;;;;;;14.85;100.00;96987.81;4802397;29;20225;-54
2022/06/07 02:12:13;;;;;;;7.63;7.03;;;;;;;14.86;100.00;96984.09;4814489;29;20270;-58
2022/06/07 02:14:41;;;;;;;8.07;7.37;;;;;;;14.79;100.00;96983.34;4833332;29;20250;-57
2022/06/07 02:17:09;;;;;;;6.80;6.40;;;;;;;14.89;100.00;96981.00;4852787;29;20218;-57
2022/06/07 02:19:37;;;;;;;7.30;6.80;;;;;;;14.88;100.00;96974.03;4854312;29;20225;-54
2022/06/07 02:22:07;;;;;;;7.33;6.70;;;;;;;14.77;100.00;96969.38;4854317;29;20425;-56
2022/06/07 02:24:38;;;;;;;7.40;6.80;;;;;;;14.68;100.00;96967.97;4837931;29;20301;-56
2022/06/07 02:27:09;;;;;;;7.30;6.80;;;;;;;14.69;100.00;96967.78;4810078;29;20361;-60
2022/06/07 02:33:06;;;;;;;6.57;6.13;;;;;;;14.89;100.00;96957.00;4848549;29;20821;-59
2022/06/07 02:35:34;;;;;;;7.90;7.40;;;;;;;14.63;100.00;96957.97;4849911;29;20301;-56
2022/06/07 02:38:03;;;;;;;8.23;6.63;;;;;;;14.65;100.00;96957.75;4847035;29;20217;-59
2022/06/07 02:40:41;;;;;;;7.93;7.33;;;;;;;14.61;100.00;96949.38;4844062;29;20305;-52
2022/06/07 02:43:09;;;;;;;9.30;7.67;;;;;;;14.66;100.00;96941.56;4799907;29;20364;-56
2022/06/07 02:45:37;;;;;;;7.97;7.27;;;;;;;14.71;100.00;96939.09;4824251;29;20648;-53
2022/06/07 02:48:09;;;;;;;8.10;7.50;;;;;;;14.69;100.00;96940.28;4848488;29;20527;-57
2022/06/07 02:50:38;;;;;;;8.40;7.70;;;;;;;14.62;100.00;96940.34;4852166;29;20222;-50
2022/06/07 02:53:06;;;;;;;7.83;7.13;;;;;;;14.63;100.00;96944.66;4847889;29;20265;-59
2022/06/07 02:55:36;;;;;;;8.40;7.67;;;;;;;14.62;100.00;96935.81;4833514;29;20249;-56
2022/06/07 02:58:04;;;;;;;7.83;7.23;;;;;;;14.74;100.00;96941.31;4796451;29;21519;-58
2022/06/07 03:00:33;;;;;;;7.77;7.17;;;;;;;14.71;100.00;96943.59;4828404;29;20245;-55
2022/06/07 03:03:01;;;;;;;8.00;7.40;;;;;;;14.61;100.00;96944.84;4847513;29;20446;-59
2022/06/07 03:05:30;;;;;;;8.20;7.60;;;;;;;14.72;100.00;96947.88;4848518;29;20261;-53
2022/06/07 03:07:58;;;;;;;8.03;7.23;;;;;;;14.76;100.00;96946.41;4848743;29;20419;-57
2022/06/07 03:10:27;;;;;;;7.33;6.83;;;;;;;14.66;100.00;96941.56;4792448;29;20843;-56
2022/06/07 03:12:57;;;;;;;8.27;7.57;;;;;;;14.77;100.00;96942.72;4805078;29;20915;-54
2022/06/07 03:15:26;;;;;;;7.63;7.13;;;;;;;14.76;100.00;96941.06;4798967;29;20719;-53
2022/06/07 03:17:54;;;;;;;8.00;7.40;;;;;;;14.80;100.00;96942.31;4848052;29;20716;-57
2022/06/07 03:20:22;;;;;;;8.77;7.87;;;;;;;15.00;100.00;96944.81;4847040;29;20759;-57
2022/06/07 03:22:52;;;;;;;8.67;7.87;;;;;;;15.00;100.00;96941.31;4849785;29;20266;-55
2022/06/07 03:25:21;;;;;;;7.70;7.10;;;;;;;14.90;100.00;96952.47;4847256;29;20313;-56
2022/06/07 03:27:49;;;;;;;6.73;6.27;;;;;;;14.79;100.00;96953.19;4813479;29;20608;-52
2022/06/07 03:30:18;;;;;;;7.67;7.17;;;;;;;14.71;100.00;96952.41;4778167;29;21249;-58
2022/06/07 03:32:46;;;;;;;8.20;7.50;;;;;;;14.67;100.00;96953.84;4849788;29;20241;-58
2022/06/07 03:35:16;;;;;;;8.53;7.93;;;;;;;14.75;100.00;96950.13;4844121;29;20218;-56
2022/06/07 03:37:44;;;;;;;8.00;7.30;;;;;;;14.79;100.00;96954.00;4844686;29;20688;-56
2022/06/07 03:40:42;;;;;;;7.83;7.23;;;;;;;14.82;100.00;96950.91;4846546;29;20474;-55
2022/06/07 03:43:05;;;;;;;8.63;7.77;;;;;;;14.60;100.00;96950.41;4824625;29;20526;-56
2022/06/07 03:45:33;;;;;;;7.70;7.20;;;;;;;14.77;100.00;96956.03;4806443;29;20224;-57
2022/06/07 03:48:02;;;;;;;8.10;7.27;;;;;;;14.75;100.00;96958.13;4819328;29;20571;-53
2022/06/07 03:50:30;;;;;;;8.00;7.47;;;;;;;14.75;100.00;96953.63;4849960;29;20770;-56
2022/06/07 03:52:58;;;;;;;8.60;7.90;;;;;;;14.76;100.00;96949.91;4849466;29;20742;-56
2022/06/07 03:55:27;;;;;;;8.17;7.47;;;;;;;14.72;100.00;96955.88;4848584;29;20230;-56
2022/06/07 03:57:56;;;;;;;8.70;7.67;;;;;;;14.50;100.00;96956.22;4842905;29;20217;-56
2022/06/07 04:00:25;;;;;;;7.83;7.07;;;;;;;14.75;100.00;96958.94;4785467;29;21737;-58
2022/06/07 04:02:53;;;;;;;8.60;8.00;;;;;;;14.83;100.00;96957.03;4819541;29;20274;-54
2022/06/07 04:05:21;;;;;;;8.43;7.73;;;;;;;14.79;100.00;96958.50;4847344;29;20245;-56
2022/06/07 04:10:36;;;;;;;8.03;7.43;;;;;;;14.57;100.00;96959.66;4849112;29;20269;-59
2022/06/07 04:13:05;;;;;;;8.03;7.33;;;;;;;14.53;100.00;96953.13;4844949;29;20234;-53
2022/06/07 04:15:33;;;;;;;8.30;7.53;;;;;;;14.49;100.00;96957.25;4773839;29;20221;-58
2022/06/07 04:18:01;;;;;;;7.87;7.17;;;;;;;14.50;100.00;96958.06;4824543;29;20759;-53
2022/06/07 04:20:29;;;;;;;9.20;8.50;;;;;;;14.56;100.00;96949.19;4846551;29;20483;-52
2022/06/07 04:22:57;;;;;;;8.50;7.70;;;;;;;14.69;100.00;96961.63;4846129;29;20237;-54
2022/06/07 04:25:27;;;;;;;8.60;8.00;;;;;;;14.73;100.00;96961.00;4835355;29;20246;-55
2022/06/07 04:27:57;;;;;;;8.30;7.77;;;;;;;14.85;100.00;96960.31;4838955;29;20214;-58
2022/06/07 04:30:26;;;;;;;8.17;7.47;;;;;;;14.70;100.00;96961.44;4794651;29;20227;-57
2022/06/07 04:32:56;;;;;;;8.40;7.80;;;;;;;14.76;100.00;96959.75;4811264;29;21646;-57
2022/06/07 04:35:24;;;;;;;8.07;7.57;;;;;;;14.68;100.00;96959.97;4842935;29;20214;-57
2022/06/07 04:37:54;;;;;;;8.57;7.77;;;;;;;14.76;100.00;96954.41;4845292;29;20775;-59
2022/06/07 04:40:22;;;;;;;9.60;8.80;;;;;;;14.81;100.00;96959.09;4850912;29;20241;-54
2022/06/07 04:42:51;;;;;;;8.53;7.93;;;;;;;14.93;100.00;96960.03;4846746;29;20885;-56
2022/06/07 04:45:20;;;;;;;8.37;7.77;;;;;;;14.93;100.00;96960.03;4809073;29;20301;-54
2022/06/07 04:47:49;;;;;;;8.50;7.80;;;;;;;14.98;100.00;96959.38;4809035;29;20213;-57
2022/06/07 04:50:19;;;;;;;7.80;7.07;;;;;;;15.18;100.00;96956.56;4821900;29;20301;-56
2022/06/07 04:52:48;;;;;;;7.90;7.37;;;;;;;14.99;100.00;96961.84;4845848;29;20615;-57
2022/06/07 04:55:17;;;;;;;8.37;7.57;;;;;;;15.07;100.00;96962.59;4848380;29;20305;-55
2022/06/07 04:57:45;;;;;;;7.37;6.87;;;;;;;15.04;100.00;96972.69;4848849;29;20214;-59
2022/06/07 05:00:23;;;;;;;7.80;7.10;;;;;;;15.16;100.00;96974.63;4807793;29;20218;-61
2022/06/07 05:02:56;;;;;;;7.10;6.53;;;;;;;15.09;100.00;96972.00;4809742;29;20583;-58
2022/06/07 05:05:24;;;;;;;6.93;6.33;;;;;;;15.01;100.00;96973.13;4820312;29;20847;-55
2022/06/07 05:07:52;;;;;;;8.23;6.70;;;;;;;14.92;100.00;96966.41;4850242;29;20222;-57
2022/06/07 05:10:20;;;;;;;8.23;7.57;;;;;;;14.96;100.00;96967.59;4846793;29;20658;-57
2022/06/07 05:12:48;;;;;;;7.33;6.77;;;;;;;15.09;100.00;96966.69;4847180;29;20837;-59
2022/06/07 05:15:20;;;;;;;7.43;6.90;;;;;;;14.97;100.00;96965.75;4827059;29;20210;-55
2022/06/07 05:17:51;;;;;;;7.50;6.90;;;;;;;14.96;100.00;96972.94;4816792;29;20237;-57
2022/06/07 05:20:21;;;;;;;7.80;7.20;;;;;;;14.83;100.00;96973.03;4779045;29;21066;-57
2022/06/07 05:22:49;;;;;;;7.73;7.13;;;;;;;14.90;100.00;96973.81;4820582;29;20336;-53
2022/06/07 05:25:19;;;;;;;6.97;6.43;;;;;;;15.16;100.00;96971.97;4847202;29;20298;-51
2022/06/07 05:27:49;;;;;;;8.27;7.47;;;;;;;15.17;100.00;96976.25;4851408;29;21244;-58
2022/06/07 05:30:18;;;;;;;7.13;6.53;;;;;;;15.21;100.00;96974.00;4850131;29;20226;-56
2022/06/07 05:32:46;;;;;;;7.53;7.03;;;;;;;15.29;100.00;96966.50;4816026;29;20237;-58
2022/06/07 05:35:14;;;;;;;7.37;6.77;;;;;;;15.32;100.00;96974.06;4811905;29;20423;-54
2022/06/07 05:37:44;;;;;;;6.63;6.13;;;;;;;15.47;100.00;96968.38;4791451;29;20788;-50
2022/06/07 05:40:13;;;;;;;6.80;6.20;;;;;;;15.15;100.00;96967.66;4850104;29;20476;-53
2022/06/07 05:42:41;;;;;;;6.70;6.10;;;;;;;15.31;100.00;96969.75;4852933;29;20329;-58
2022/06/07 05:45:11;;;;;;;6.87;6.37;;;;;;;15.22;100.00;96975.63;4850952;29;20368;-54
2022/06/07 05:47:41;;;;;;;6.93;6.43;;;;;;;15.44;100.00;96976.03;4812555;29;20229;-57
2022/06/07 05:50:09;;;;;;;7.10;6.60;;;;;;;15.67;100.00;96971.88;4812502;29;20217;-55
2022/06/07 05:52:40;;;;;;;7.27;6.77;;;;;;;15.64;100.00;96973.16;4822897;29;20500;-56
2022/06/07 05:55:10;;;;;;;7.80;7.27;;;;;;;15.85;100.00;96979.91;4825215;29;20236;-52
2022/06/07 05:57:38;;;;;;;6.20;5.70;;;;;;;15.96;100.00;96961.53;4847542;29;20389;-56
2022/06/07 06:00:07;;;;;;;5.80;5.40;;;;;;;16.17;100.00;96971.75;4849932;29;20218;-55
2022/06/07 06:02:35;;;;;;;6.33;5.77;;;;;;;16.19;100.00;96963.50;4809115;29;20814;-57
2022/06/07 06:05:10;;;;;;;5.93;5.53;;;;;;;16.42;100.00;96961.97;4846435;29;20731;-54
2022/06/07 06:10:19;;;;;;;6.03;5.57;;;;;;;16.70;100.00;96957.88;4807141;29;20536;-54
2022/06/07 06:10:29;;;;;;;5.60;5.30;;;;;;;16.83;100.00;96949.66;4821247;29;20219;-52
2022/06/07 06:12:58;;;;;;;5.10;4.80;;;;;;;16.92;100.00;96948.25;4850703;29;20672;-58
2022/06/07 06:15:26;;;;;;;4.97;4.37;;;;;;;17.18;100.00;96956.94;4848433;29;20229;-55
2022/06/07 06:17:55;;;;;;;5.37;4.80;;;;;;;17.35;100.00;96965.09;4811103;29;20230;-53
2022/06/07 06:20:23;;;;;;;4.93;4.60;;;;;;;17.63;100.00;96949.34;4804766;29;21199;-55
2022/06/07 06:22:51;;;;;;;5.07;4.67;;;;;;;17.45;100.00;96958.34;4849830;29;20226;-56
2022/06/07 06:25:20;;;;;;;3.87;3.57;;;;;;;17.68;100.00;96956.69;4797704;29;20230;-54
2022/06/07 06:27:49;;;;;;;4.70;4.30;;;;;;;17.76;100.00;96950.97;4848014;29;20372;-55
2022/06/07 06:30:17;;;;;;;4.00;3.80;;;;;;;17.93;100.00;96962.56;4845907;29;20213;-56
2022/06/07 06:32:45;;;;;;;3.37;3.17;;;;;;;17.72;100.00;96957.84;4819312;29;20238;-57
2022/06/07 06:35:13;;;;;;;3.50;3.20;;;;;;;17.90;100.00;96955.00;4828726;29;20260;-55
2022/06/07 06:37:41;;;;;;;3.40;3.20;;;;;;;18.16;100.00;96947.50;4841622;29;20481;-59
2022/06/07 06:40:12;;;;;;;3.50;3.30;;;;;;;18.48;100.00;96932.78;4829085;29;20254;-56
2022/06/07 06:42:40;;;;;;;4.03;3.83;;;;;;;18.88;100.00;96939.09;4851031;29;20234;-57
2022/06/07 06:45:10;;;;;;;4.83;4.50;;;;;;;18.76;100.00;96945.38;4853413;29;20806;-54
2022/06/07 06:47:38;;;;;;;4.90;4.50;;;;;;;18.22;100.00;96938.50;4850192;29;21198;-55
2022/06/07 06:50:07;;;;;;;4.33;4.03;;;;;;;18.40;100.00;96935.88;4818007;29;20226;-53
2022/06/07 06:52:35;;;;;;;5.00;4.60;;;;;;;17.79;100.00;96931.72;4815821;29;20245;-57
2022/06/07 06:55:03;;;;;;;4.20;3.90;;;;;;;18.36;100.00;96932.84;4851329;29;20229;-55
2022/06/07 06:57:31;;;;;;;5.90;5.40;;;;;;;18.31;100.00;96933.56;4831314;29;20366;-58
2022/06/07 06:59:59;;;;;;;4.60;4.27;;;;;;;18.22;100.00;96935.03;4853041;29;20417;-58
2022/06/07 07:02:29;;;;;;;4.70;4.40;;;;;;;18.01;100.00;96928.47;4851420;29;20237;-59
2022/06/07 07:04:57;;;;;;;4.17;3.87;;;;;;;17.95;100.00;96924.81;4816970;29;20386;-54
2022/06/07 07:07:25;;;;;;;3.97;3.77;;;;;;;18.22;100.00;96925.09;4814820;29;20643;-52
2022/06/07 07:09:55;;;;;;;4.00;3.70;;;;;;;18.32;100.00;96932.53;4853276;29;20588;-57
2022/06/07 07:12:23;;;;;;;4.30;3.90;;;;;;;18.17;100.00;96932.22;4826977;29;20856;-57
2022/06/07 07:14:51;;;;;;;3.87;3.33;;;;;;;18.23;100.00;96940.13;4854179;29;20215;-54
2022/06/07 07:17:25;;;;;;;3.87;3.67;;;;;;;18.21;100.00;96939.56;4848471;29;20996;-55
2022/06/07 07:19:55;;;;;;;4.17;3.40;;;;;;;17.94;100.00;96933.91;4851974;29;20521;-54
2022/06/07 07:22:23;;;;;;;4.10;3.70;;;;;;;18.25;100.00;96941.75;4781283;29;20613;-55
2022/06/07 07:24:52;;;;;;;3.50;3.23;;;;;;;18.37;100.00;96935.28;4854201;29;20738;-56
2022/06/07 07:27:20;;;;;;;3.63;3.43;;;;;;;18.97;100.00;96942.22;4823523;29;20316;-56
2022/06/07 07:29:48;;;;;;;3.87;3.60;;;;;;;18.80;100.00;96943.00;4854105;29;20348;-57
2022/06/07 07:32:16;;;;;;;4.07;3.77;;;;;;;19.17;100.00;96939.84;4849124;29;20681;-54
2022/06/07 07:34:44;;;;;;;3.63;3.43;;;;;;;19.65;100.00;96939.44;4852242;29;20232;-53
2022/06/07 07:37:14;;;;;;;4.43;4.03;;;;;;;19.38;100.00;96951.72;4804825;29;20308;-52
2022/06/07 07:39:42;;;;;;;4.10;3.70;;;;;;;19.57;100.00;96953.31;4851042;29;20293;-57
2022/06/07 07:42:10;;;;;;;4.23;3.93;;;;;;;19.42;100.00;96956.59;4843913;29;20238;-55
2022/06/07 07:44:38;;;;;;;4.30;3.97;;;;;;;19.45;100.00;96950.72;4839414;29;20479;-57
2022/06/07 07:47:06;;;;;;;4.20;3.90;;;;;;;19.66;100.00;96952.66;4850944;29;20214;-53
2022/06/07 07:49:34;;;;;;;3.57;3.43;;;;;;;19.42;100.00;96949.34;4848641;29;20414;-57
2022/06/07 07:52:03;;;;;;;3.80;3.60;;;;;;;19.43;100.00;96951.00;4804848;29;20233;-55
2022/06/07 07:54:33;;;;;;;4.30;4.10;;;;;;;19.49;100.00;96949.16;4845526;29;20476;-54
2022/06/07 07:57:01;;;;;;;4.30;4.00;;;;;;;19.87;100.00;96954.78;4850343;29;20796;-58
2022/06/07 07:59:33;;;;;;;4.17;3.97;;;;;;;20.00;100.00;96943.69;4830806;29;20394;-54
2022/06/07 08:02:01;;;;;;;11.60;10.60;;;;;;;20.19;100.00;96951.44;4851391;29;20237;-59
2022/06/07 08:04:29;;;;;;;4.13;3.83;;;;;;;20.65;100.00;96951.91;4846362;29;20455;-58
2022/06/07 08:06:57;;;;;;;3.13;2.87;;;;;;;20.82;100.00;96949.13;4847190;29;20226;-58
2022/06/07 08:09:26;;;;;;;3.27;3.17;;;;;;;20.93;100.00;96954.59;4802955;29;20409;-57
2022/06/07 08:11:56;;;;;;;3.70;3.47;;;;;;;21.04;100.00;96953.63;4849660;29;20242;-58
2022/06/07 08:14:24;;;;;;;3.90;3.65;;;;;;;20.71;100.00;96955.47;4824511;29;21013;-58
2022/06/07 08:16:54;;;;;;;3.83;3.53;;;;;;;20.81;100.00;96952.88;4850387;29;20206;-55
2022/06/07 08:19:21;;;;;;;4.63;4.30;;;;;;;20.90;100.00;96947.84;4847153;29;20228;-58
2022/06/07 08:21:50;;;;;;;3.87;3.70;;;;;;;21.19;100.00;96952.09;4852978;29;20367;-57
2022/06/07 08:24:23;;;;;;;4.20;3.90;;;;;;;20.72;100.00;96956.25;4804509;29;21060;-58
2022/06/07 08:26:52;;;;;;;4.20;4.00;;;;;;;21.11;100.00;96951.50;4852772;29;20657;-55
2022/06/07 08:29:21;;;;;;;4.50;4.30;;;;;;;20.71;100.00;96949.25;4850780;29;20439;-56
2022/06/07 08:31:49;;;;;;;4.70;4.40;;;;;;;21.21;100.00;96953.47;4828727;29;20774;-54
2022/06/07 08:39:49;;;;;;;4.57;4.13;;;;;;;20.79;100.00;96946.13;4806622;29;20216;-53
2022/06/07 08:42:32;;;;;;;5.40;4.90;;;;;;;21.25;100.00;96951.88;4845366;29;20249;-51
2022/06/07 08:45:02;;;;;;;4.70;4.40;;;;;;;22.10;100.00;96942.09;4852499;29;20450;-57
2022/06/07 08:47:34;;;;;;;5.33;4.30;;;;;;;22.14;100.00;96942.38;4826644;29;20232;-57
2022/06/07 08:50:06;;;;;;;9.17;8.37;;;;;;;22.63;100.00;96940.38;4850112;29;20926;-58
2022/06/07 08:52:36;;;;;;;4.73;4.47;;;;;;;22.90;100.00;96942.00;4850540;29;20619;-55
2022/06/07 08:55:14;;;;;;;4.00;3.80;;;;;;;22.77;100.00;96936.06;4847020;29;20898;-56
2022/06/07 08:57:43;;;;;;;4.00;3.70;;;;;;;22.67;100.00;96936.06;4840758;29;20213;-58
2022/06/07 09:00:22;;;;;;;3.10;3.00;;;;;;;22.85;100.00;96929.31;4849041;29;20219;-54
2022/06/07 09:03:14;;;;;;;3.73;3.50;;;;;;;22.54;100.00;96923.88;4835409;29;20241;-52
2022/06/07 09:05:43;;;;;;;3.37;3.17;;;;;;;22.87;100.00;96937.97;4852411;29;20237;-58
2022/06/07 09:08:14;;;;;;;3.40;3.20;;;;;;;22.93;100.00;96923.38;4853030;29;20486;-55
2022/06/07 09:13:28;;;;;;;3.60;3.40;;;;;;;22.40;100.00;96926.25;4850332;29;20422;-59
2022/06/07 09:15:57;;;;;;;3.07;2.97;;;;;;;21.67;100.00;96931.41;4852193;29;20232;-57
2022/06/07 09:18:27;;;;;;;3.40;3.20;;;;;;;22.02;100.00;96929.13;4827201;29;20756;-57
2022/06/07 09:20:59;;;;;;;3.50;3.00;;;;;;;22.04;100.00;96921.59;4848919;29;20226;-56
2022/06/07 09:23:30;;;;;;;6.00;2.93;;;;;;;21.65;100.00;96927.34;4850882;29;20206;-58
2022/06/07 09:26:13;;;;;;;3.17;2.93;;;;;;;21.47;100.00;96933.97;4811694;29;20238;-56
2022/06/07 09:28:41;;;;;;;2.83;2.50;;;;;;;21.69;100.00;96925.75;4854141;29;20256;-57
2022/06/07 09:31:12;;;;;;;3.53;3.33;;;;;;;21.75;100.00;96924.72;4853721;29;20217;-55
2022/06/07 09:33:53;;;;;;;3.80;3.43;;;;;;;21.51;100.00;96935.06;4830115;29;21352;-54
2022/06/07 09:36:29;;;;;;;2.90;2.70;;;;;;;21.47;100.00;96928.56;4850627;29;20214;-58
2022/06/07 09:38:58;;;;;;;2.50;2.40;;;;;;;21.54;100.00;96926.47;4854041;29;20221;-56
2022/06/07 09:41:37;;;;;;;3.27;3.00;;;;;;;21.56;100.00;96921.63;4806813;29;20978;-59
2022/06/07 09:44:13;;;;;;;2.87;2.77;;;;;;;21.85;100.00;96923.94;4851298;29;20281;-54
2022/06/07 09:46:44;;;;;;;2.93;2.80;;;;;;;21.35;100.00;96923.38;4852725;29;20326;-57
2022/06/07 09:49:34;;;;;;;3.57;2.80;;;;;;;21.03;100.00;96930.44;4829596;29;20278;-55
2022/06/07 09:52:14;;;;;;;2.83;2.30;;;;;;;20.62;100.00;96933.56;4855352;29;20325;-56
2022/06/07 09:54:45;;;;;;;3.77;1.87;;;;;;;20.65;100.00;96943.03;4853584;29;20240;-55
2022/06/07 09:57:30;;;;;;;2.23;2.13;;;;;;;20.34;100.00;96934.66;4806454;29;20734;-54
2022/06/07 10:00:18;;;;;;;2.07;1.97;;;;;;;19.85;100.00;96933.50;4851071;29;20217;-56
2022/06/07 10:03:11;;;;;;;3.60;3.40;;;;;;;20.49;100.00;96928.63;4855169;29;20740;-56
2022/06/07 10:05:42;;;;;;;3.07;2.87;;;;;;;21.09;100.00;96924.03;4824945;29;20496;-54
2022/06/07 10:08:24;;;;;;;2.50;2.30;;;;;;;21.34;100.00;96922.56;4853734;29;20601;-56
2022/06/07 10:10:55;;;;;;;3.40;3.10;;;;;;;21.65;100.00;96913.88;4852874;29;20221;-55
2022/06/07 10:13:32;;;;;;;2.60;2.50;;;;;;;22.20;100.00;96924.31;4810217;29;20225;-57
2022/06/07 10:16:04;;;;;;;2.77;2.67;;;;;;;21.59;100.00;96922.97;4854622;29;20333;-57
2022/06/07 10:18:45;;;;;;;2.90;2.60;;;;;;;21.06;100.00;96919.16;4852261;29;20288;-57
2022/06/07 10:21:30;;;;;;;3.10;2.87;;;;;;;21.10;100.00;96922.13;4830043;29;21962;-54
2022/06/07 10:24:12;;;;;;;2.73;2.63;;;;;;;20.78;100.00;96922.94;4852145;29;20220;-53
2022/06/07 10:26:50;;;;;;;2.73;2.53;;;;;;;20.72;100.00;96916.72;4852430;29;20332;-55
2022/06/07 10:29:26;;;;;;;4.47;3.13;;;;;;;20.91;100.00;96913.66;4804721;29;20214;-54
2022/06/07 10:31:59;;;;;;;2.57;2.37;;;;;;;20.61;100.00;96923.03;4854244;29;20234;-55
2022/06/07 10:34:35;;;;;;;2.60;2.40;;;;;;;21.00;100.00;96920.16;4847262;29;20418;-58
2022/06/07 10:37:26;;;;;;;7.37;3.03;;;;;;;20.95;100.00;96930.91;4830299;29;20218;-53
2022/06/07 10:40:02;;;;;;;2.80;2.60;;;;;;;21.15;100.00;96926.75;4853184;29;20217;-57
2022/06/07 10:42:36;;;;;;;2.63;2.53;;;;;;;21.60;100.00;96917.31;4853022;29;20238;-56
2022/06/07 10:45:12;;;;;;;2.43;2.33;;;;;;;22.32;100.00;96913.28;4809074;29;20221;-56
2022/06/07 10:47:45;;;;;;;2.70;2.50;;;;;;;22.43;100.00;96919.53;4855280;29;20495;-58
2022/06/07 10:50:19;;;;;;;2.80;2.70;;;;;;;22.29;100.00;96916.53;4851085;29;20650;-56
2022/06/07 10:52:52;;;;;;;2.63;2.43;;;;;;;22.24;90.18;96911.91;4831768;29;20237;-54
2022/06/07 10:55:26;;;;;;;2.33;2.23;;;;;;;22.14;83.47;96911.91;4853471;29;20214;-50
2022/06/07 10:58:02;;;;;;;2.13;2.03;;;;;;;22.45;85.88;96910.06;4849293;29;20249;-52
2022/06/07 11:00:35;;;;;;;3.10;3.00;;;;;;;22.61;97.48;96907.44;4803630;29;20220;-50
2022/06/07 11:03:13;;;;;;;3.23;3.13;;;;;;;22.91;100.00;96903.91;4850517;29;20233;-56
2022/06/07 11:11:20;;;;;;;2.50;2.40;;;;;;;22.01;98.83;96902.41;4837731;29;20260;-51
2022/06/07 11:14:02;;;;;;;2.43;2.23;;;;;;;21.83;100.00;96899.13;4852924;29;20225;-55
2022/06/07 11:16:34;;;;;;;2.10;2.00;;;;;;;22.81;94.82;96893.13;4803482;29;20218;-54
2022/06/07 11:19:04;;;;;;;2.30;2.10;;;;;;;23.42;88.41;96891.44;4850322;29;20213;-55
2022/06/07 11:21:36;;;;;;;2.60;2.10;;;;;;;23.15;84.63;96894.44;4850985;29;20234;-58
2022/06/07 11:24:18;;;;;;;1.60;1.60;;;;;;;23.12;78.50;96893.09;4829845;29;20228;-49
2022/06/07 11:27:05;;;;;;;1.90;1.80;;;;;;;23.45;85.59;96898.19;4851976;29;20230;-56
2022/06/07 11:29:34;;;;;;;1.70;1.70;;;;;;;23.21;79.47;96887.94;4849089;29;20711;-56
2022/06/07 11:32:03;;;;;;;1.90;1.80;;;;;;;23.55;77.12;96885.47;4809054;29;20240;-53
2022/06/07 11:34:33;;;;;;;2.40;1.83;;;;;;;23.46;76.38;96884.38;4847614;29;20218;-58
2022/06/07 11:37:26;;;;;;;2.30;1.30;;;;;;;23.67;76.10;96895.16;4834973;29;20217;-55
2022/06/07 11:39:57;;;;;;;2.90;2.00;;;;;;;23.94;74.78;96894.75;4852240;29;20220;-55
2022/06/07 11:42:31;;;;;;;1.53;1.40;;;;;;;24.27;74.04;96897.88;4828512;29;20229;-52
2022/06/07 11:45:19;;;;;;;2.23;2.13;;;;;;;24.30;69.28;96893.81;4852962;29;20228;-54
2022/06/07 11:48:13;;;;;;;1.30;1.20;;;;;;;24.23;66.94;96888.69;4824819;29;20249;-54
2022/06/07 11:50:43;;;;;;;1.13;1.13;;;;;;;24.19;65.82;96890.34;4805561;29;20210;-53
2022/06/07 11:53:31;;;;;;;2.27;1.20;;;;;;;23.50;62.83;96890.06;4830708;29;20875;-56
2022/06/07 11:56:20;;;;;;;1.10;1.10;;;;;;;23.06;73.37;96889.59;4849418;29;20422;-57
2022/06/07 11:58:57;;;;;;;1.47;1.47;;;;;;;22.68;68.76;96889.88;4847327;29;20224;-53
2022/06/07 12:01:40;;;;;;;1.10;1.10;;;;;;;22.60;67.32;96885.00;4854859;29;20236;-56
2022/06/07 12:04:29;;;;;;;1.30;1.23;;;;;;;22.51;67.82;96878.53;4821488;29;20316;-57
2022/06/07 12:07:11;;;;;;;1.40;1.30;;;;;;;23.31;63.63;96879.03;4845441;29;20549;-56
2022/06/07 12:09:47;;;;;;;2.00;1.90;;;;;;;23.95;59.34;96869.31;4825839;29;20236;-55
2022/06/07 12:12:20;;;;;;;1.20;1.10;;;;;;;23.78;60.52;96866.97;4850260;29;20267;-57
2022/06/07 12:14:52;;;;;;;1.10;1.10;;;;;;;24.31;61.09;96867.53;4847935;29;20221;-58